PWSweather.com
Personal Weather Stations
Station Observations
WD4JKH
Forsyth, GA 31029

Forsyth, GA 31029

Lat: 33.033225, Lon: -83.927995

Elevation: 709

Station Type: Davis Vantage VUE

High Low Average
Temperature 70.9°F21.6°C 46.2°F7.9°C 58.1°F14.5°C
Dew Point 60.6°F15.9°C 39.0°F3.9°C 50.8°F10.4°C
Winds 15.1 mph 24.3 kmh 1.0 mph 1.6 kmh 6.0 mph SE9.7 kmh SE
Wind Gusts 31.0 mph49.9 kmh 5.0 mph8.0 kmh 17.0 mph27.4 kmh
Humidity 96% 56% 78%
Pressure 30.42 in1030.1 mb 29.73 in1006.8 mb -
Precipitation 1.01 in25.7 mm - -
Hour Temp Dew Point Humidity Winds Wind Gusts Pressure Precip Precip Rate Daily Precip Total
12:03 AM 47.4°F8.6°C 38.6°F3.7°C 71% 4.8 mph E7.7 kmh E 11.0 mph17.7 kmh 30.43 in1030.5 mb 0.00 in0.0 mm 0.00 in0.0 mm 0.00 in0.0 mm
12:08 AM 47.4°F8.6°C 38.9°F3.8°C 72% 6.1 mph E9.8 kmh E 11.0 mph17.7 kmh 30.43 in1030.5 mb 0.00 in0.0 mm 0.00 in0.0 mm 0.00 in0.0 mm
12:13 AM 47.4°F8.6°C 38.9°F3.8°C 72% 3.8 mph E6.1 kmh E 11.0 mph17.7 kmh 30.43 in1030.5 mb 0.00 in0.0 mm 0.00 in0.0 mm 0.00 in0.0 mm
12:18 AM 47.5°F8.6°C 39.4°F4.1°C 73% 5.3 mph E8.5 kmh E 11.0 mph17.7 kmh 30.43 in1030.5 mb 0.00 in0.0 mm 0.00 in0.0 mm 0.00 in0.0 mm
12:23 AM 47.4°F8.6°C 39.3°F4.1°C 73% 4.2 mph E6.8 kmh E 11.0 mph17.7 kmh 30.43 in1030.5 mb 0.00 in0.0 mm 0.00 in0.0 mm 0.00 in0.0 mm
12:28 AM 47.5°F8.6°C 39.4°F4.1°C 73% 5.5 mph E8.9 kmh E 11.0 mph17.7 kmh 30.43 in1030.5 mb 0.00 in0.0 mm 0.00 in0.0 mm 0.00 in0.0 mm
12:33 AM 47.5°F8.6°C 39.7°F4.3°C 74% 6.1 mph E9.8 kmh E 11.0 mph17.7 kmh 30.43 in1030.5 mb 0.00 in0.0 mm 0.00 in0.0 mm 0.00 in0.0 mm
12:38 AM 47.5°F8.6°C 39.7°F4.3°C 74% 4.4 mph E7.1 kmh E 11.0 mph17.7 kmh 30.43 in1030.5 mb 0.00 in0.0 mm 0.00 in0.0 mm 0.00 in0.0 mm
12:43 AM 47.4°F8.6°C 39.6°F4.2°C 74% 3.9 mph E6.3 kmh E 11.0 mph17.7 kmh 30.43 in1030.5 mb 0.00 in0.0 mm 0.00 in0.0 mm 0.00 in0.0 mm
12:48 AM 47.4°F8.6°C 39.6°F4.2°C 74% 6.6 mph E10.6 kmh E 11.0 mph17.7 kmh 30.42 in1030.1 mb 0.00 in0.0 mm 0.00 in0.0 mm 0.00 in0.0 mm
12:53 AM 47.3°F8.5°C 39.5°F4.2°C 74% 9.2 mph E14.8 kmh E 14.0 mph22.5 kmh 30.42 in1030.1 mb 0.00 in0.0 mm 0.00 in0.0 mm 0.00 in0.0 mm
12:58 AM 47.3°F8.5°C 39.8°F4.3°C 75% 5.2 mph E8.4 kmh E 14.0 mph22.5 kmh 30.42 in1030.1 mb 0.00 in0.0 mm 0.00 in0.0 mm 0.00 in0.0 mm
01:03 AM 47.2°F8.4°C 39.7°F4.3°C 75% 6.0 mph E9.7 kmh E 14.0 mph22.5 kmh 30.42 in1030.1 mb 0.00 in0.0 mm 0.00 in0.0 mm 0.00 in0.0 mm
01:08 AM 47.2°F8.4°C 39.4°F4.1°C 74% 5.2 mph E8.4 kmh E 14.0 mph22.5 kmh 30.42 in1030.1 mb 0.00 in0.0 mm 0.00 in0.0 mm 0.00 in0.0 mm
01:13 AM 47.1°F8.4°C 39.3°F4.1°C 74% 9.0 mph E14.5 kmh E 15.0 mph24.1 kmh 30.42 in1030.1 mb 0.00 in0.0 mm 0.00 in0.0 mm 0.00 in0.0 mm
01:18 AM 47.0°F8.3°C 39.2°F4.0°C 74% 6.3 mph E10.1 kmh E 15.0 mph24.1 kmh 30.42 in1030.1 mb 0.00 in0.0 mm 0.00 in0.0 mm 0.00 in0.0 mm
01:23 AM 47.0°F8.3°C 39.2°F4.0°C 74% 8.6 mph E13.8 kmh E 16.0 mph25.7 kmh 30.41 in1029.8 mb 0.00 in0.0 mm 0.00 in0.0 mm 0.00 in0.0 mm
01:28 AM 46.9°F8.3°C 39.1°F3.9°C 74% 5.4 mph E8.7 kmh E 16.0 mph25.7 kmh 30.41 in1029.8 mb 0.00 in0.0 mm 0.00 in0.0 mm 0.00 in0.0 mm
01:33 AM 46.8°F8.2°C 39.0°F3.9°C 74% 8.7 mph E14.0 kmh E 16.0 mph25.7 kmh 30.41 in1029.8 mb 0.00 in0.0 mm 0.00 in0.0 mm 0.00 in0.0 mm
01:38 AM 46.8°F8.2°C 39.4°F4.1°C 75% 8.7 mph E14.0 kmh E 16.0 mph25.7 kmh 30.40 in1029.5 mb 0.00 in0.0 mm 0.00 in0.0 mm 0.00 in0.0 mm
01:43 AM 46.7°F8.2°C 39.3°F4.1°C 75% 5.6 mph E9.0 kmh E 15.0 mph24.1 kmh 30.40 in1029.5 mb 0.00 in0.0 mm 0.00 in0.0 mm 0.00 in0.0 mm
01:48 AM 46.7°F8.2°C 39.3°F4.1°C 75% 6.4 mph E10.3 kmh E 15.0 mph24.1 kmh 30.40 in1029.5 mb 0.00 in0.0 mm 0.00 in0.0 mm 0.00 in0.0 mm
01:53 AM 46.7°F8.2°C 39.2°F4.0°C 75% 6.8 mph E10.9 kmh E 14.0 mph22.5 kmh 30.39 in1029.1 mb 0.00 in0.0 mm 0.00 in0.0 mm 0.00 in0.0 mm
01:58 AM 46.7°F8.2°C 39.3°F4.1°C 75% 8.3 mph E13.4 kmh E 15.0 mph24.1 kmh 30.40 in1029.5 mb 0.00 in0.0 mm 0.00 in0.0 mm 0.00 in0.0 mm
02:03 AM 46.7°F8.2°C 39.5°F4.2°C 76% 5.1 mph ENE8.2 kmh ENE 15.0 mph24.1 kmh 30.39 in1029.1 mb 0.00 in0.0 mm 0.00 in0.0 mm 0.00 in0.0 mm
02:08 AM 46.7°F8.2°C 39.6°F4.2°C 76% 6.4 mph E10.3 kmh E 15.0 mph24.1 kmh 30.39 in1029.1 mb 0.00 in0.0 mm 0.00 in0.0 mm 0.00 in0.0 mm
02:12 AM 46.6°F8.1°C 39.5°F4.2°C 76% 4.1 mph ENE6.6 kmh ENE 15.0 mph24.1 kmh 30.39 in1029.1 mb 0.00 in0.0 mm 0.00 in0.0 mm 0.00 in0.0 mm
02:17 AM 46.6°F8.1°C 39.8°F4.3°C 77% 8.4 mph E13.5 kmh E 13.0 mph20.9 kmh 30.38 in1028.8 mb 0.00 in0.0 mm 0.00 in0.0 mm 0.00 in0.0 mm
02:22 AM 46.6°F8.1°C 39.8°F4.3°C 77% 5.7 mph E9.2 kmh E 13.0 mph20.9 kmh 30.38 in1028.8 mb 0.00 in0.0 mm 0.00 in0.0 mm 0.00 in0.0 mm
02:27 AM 46.6°F8.1°C 39.8°F4.3°C 77% 6.3 mph E10.1 kmh E 13.0 mph20.9 kmh 30.38 in1028.8 mb 0.00 in0.0 mm 0.00 in0.0 mm 0.00 in0.0 mm
02:32 AM 46.6°F8.1°C 39.8°F4.3°C 77% 5.1 mph ENE8.2 kmh ENE 13.0 mph20.9 kmh 30.38 in1028.8 mb 0.00 in0.0 mm 0.00 in0.0 mm 0.00 in0.0 mm
02:37 AM 46.5°F8.1°C 40.1°F4.5°C 78% 5.5 mph ENE8.9 kmh ENE 12.0 mph19.3 kmh 30.38 in1028.8 mb 0.00 in0.0 mm 0.00 in0.0 mm 0.00 in0.0 mm
02:42 AM 46.5°F8.1°C 40.0°F4.4°C 78% 4.5 mph ENE7.2 kmh ENE 10.0 mph16.1 kmh 30.38 in1028.8 mb 0.00 in0.0 mm 0.00 in0.0 mm 0.00 in0.0 mm
02:47 AM 46.6°F8.1°C 40.2°F4.6°C 78% 3.7 mph E6.0 kmh E 11.0 mph17.7 kmh 30.38 in1028.8 mb 0.00 in0.0 mm 0.00 in0.0 mm 0.00 in0.0 mm
02:52 AM 46.5°F8.1°C 40.1°F4.5°C 78% 3.6 mph E5.8 kmh E 11.0 mph17.7 kmh 30.38 in1028.8 mb 0.00 in0.0 mm 0.00 in0.0 mm 0.00 in0.0 mm
02:57 AM 46.5°F8.1°C 40.1°F4.5°C 78% 5.1 mph E8.2 kmh E 11.0 mph17.7 kmh 30.38 in1028.8 mb 0.00 in0.0 mm 0.00 in0.0 mm 0.00 in0.0 mm
03:02 AM 46.6°F8.1°C 40.5°F4.7°C 79% 4.5 mph E7.2 kmh E 11.0 mph17.7 kmh 30.38 in1028.8 mb 0.00 in0.0 mm 0.00 in0.0 mm 0.00 in0.0 mm
03:07 AM 46.6°F8.1°C 40.4°F4.7°C 79% 5.4 mph E8.7 kmh E 11.0 mph17.7 kmh 30.38 in1028.8 mb 0.00 in0.0 mm 0.00 in0.0 mm 0.00 in0.0 mm
03:12 AM 46.6°F8.1°C 40.5°F4.7°C 79% 6.9 mph E11.1 kmh E 11.0 mph17.7 kmh 30.37 in1028.4 mb 0.00 in0.0 mm 0.00 in0.0 mm 0.00 in0.0 mm
03:17 AM 46.6°F8.1°C 40.5°F4.7°C 79% 4.6 mph E7.4 kmh E 11.0 mph17.7 kmh 30.37 in1028.4 mb 0.00 in0.0 mm 0.00 in0.0 mm 0.00 in0.0 mm
03:22 AM 46.6°F8.1°C 40.5°F4.7°C 79% 3.1 mph E5.0 kmh E 11.0 mph17.7 kmh 30.37 in1028.4 mb 0.00 in0.0 mm 0.00 in0.0 mm 0.00 in0.0 mm
03:27 AM 46.6°F8.1°C 40.8°F4.9°C 80% 5.2 mph ENE8.4 kmh ENE 11.0 mph17.7 kmh 30.36 in1028.1 mb 0.00 in0.0 mm 0.00 in0.0 mm 0.00 in0.0 mm
03:32 AM 46.6°F8.1°C 40.8°F4.9°C 80% 4.5 mph ENE7.2 kmh ENE 11.0 mph17.7 kmh 30.36 in1028.1 mb 0.00 in0.0 mm 0.00 in0.0 mm 0.00 in0.0 mm
03:37 AM 46.6°F8.1°C 40.8°F4.9°C 80% 3.5 mph E5.6 kmh E 11.0 mph17.7 kmh 30.36 in1028.1 mb 0.00 in0.0 mm 0.00 in0.0 mm 0.00 in0.0 mm
03:42 AM 46.5°F8.1°C 40.7°F4.8°C 80% 2.9 mph E4.7 kmh E 11.0 mph17.7 kmh 30.36 in1028.1 mb 0.00 in0.0 mm 0.00 in0.0 mm 0.00 in0.0 mm
03:47 AM 46.5°F8.1°C 41.0°F5.0°C 81% 3.4 mph E5.5 kmh E 11.0 mph17.7 kmh 30.35 in1027.8 mb 0.00 in0.0 mm 0.00 in0.0 mm 0.00 in0.0 mm
03:52 AM 46.5°F8.1°C 41.0°F5.0°C 81% 4.9 mph E7.9 kmh E 9.0 mph14.5 kmh 30.35 in1027.8 mb 0.00 in0.0 mm 0.00 in0.0 mm 0.00 in0.0 mm
03:57 AM 46.5°F8.1°C 41.0°F5.0°C 81% 5.4 mph E8.7 kmh E 9.0 mph14.5 kmh 30.35 in1027.8 mb 0.00 in0.0 mm 0.00 in0.0 mm 0.00 in0.0 mm
04:02 AM 46.5°F8.1°C 41.3°F5.2°C 82% 2.6 mph E4.2 kmh E 10.0 mph16.1 kmh 30.35 in1027.8 mb 0.00 in0.0 mm 0.00 in0.0 mm 0.00 in0.0 mm
04:07 AM 46.5°F8.1°C 41.3°F5.2°C 82% 4.0 mph E6.4 kmh E 10.0 mph16.1 kmh 30.34 in1027.4 mb 0.00 in0.0 mm 0.00 in0.0 mm 0.00 in0.0 mm
04:12 AM 46.5°F8.1°C 41.3°F5.2°C 82% 2.3 mph ENE3.7 kmh ENE 10.0 mph16.1 kmh 30.34 in1027.4 mb 0.00 in0.0 mm 0.00 in0.0 mm 0.00 in0.0 mm
04:17 AM 46.5°F8.1°C 41.3°F5.2°C 82% 3.9 mph ENE6.3 kmh ENE 9.0 mph14.5 kmh 30.34 in1027.4 mb 0.00 in0.0 mm 0.00 in0.0 mm 0.00 in0.0 mm
04:22 AM 46.5°F8.1°C 41.3°F5.2°C 82% 3.6 mph E5.8 kmh E 10.0 mph16.1 kmh 30.34 in1027.4 mb 0.00 in0.0 mm 0.00 in0.0 mm 0.00 in0.0 mm
04:27 AM 46.5°F8.1°C 41.3°F5.2°C 82% 2.3 mph E3.7 kmh E 10.0 mph16.1 kmh 30.34 in1027.4 mb 0.00 in0.0 mm 0.00 in0.0 mm 0.00 in0.0 mm
04:32 AM 46.5°F8.1°C 41.6°F5.3°C 83% 3.1 mph E5.0 kmh E 10.0 mph16.1 kmh 30.33 in1027.1 mb 0.00 in0.0 mm 0.00 in0.0 mm 0.00 in0.0 mm
04:37 AM 46.5°F8.1°C 41.6°F5.3°C 83% 3.3 mph E5.3 kmh E 10.0 mph16.1 kmh 30.33 in1027.1 mb 0.00 in0.0 mm 0.00 in0.0 mm 0.00 in0.0 mm
04:42 AM 46.5°F8.1°C 41.6°F5.3°C 83% 1.8 mph ENE2.9 kmh ENE 8.0 mph12.9 kmh 30.33 in1027.1 mb 0.00 in0.0 mm 0.00 in0.0 mm 0.00 in0.0 mm
04:47 AM 46.5°F8.1°C 41.6°F5.3°C 83% 1.4 mph ENE2.3 kmh ENE 6.0 mph9.7 kmh 30.33 in1027.1 mb 0.00 in0.0 mm 0.00 in0.0 mm 0.00 in0.0 mm
04:52 AM 46.5°F8.1°C 41.6°F5.3°C 83% 3.0 mph NE4.8 kmh NE 7.0 mph11.3 kmh 30.33 in1027.1 mb 0.00 in0.0 mm 0.00 in0.0 mm 0.00 in0.0 mm
04:57 AM 46.5°F8.1°C 41.6°F5.3°C 83% 2.8 mph ENE4.5 kmh ENE 7.0 mph11.3 kmh 30.33 in1027.1 mb 0.00 in0.0 mm 0.00 in0.0 mm 0.00 in0.0 mm
05:02 AM 46.5°F8.1°C 41.6°F5.3°C 83% 3.3 mph ENE5.3 kmh ENE 7.0 mph11.3 kmh 30.33 in1027.1 mb 0.00 in0.0 mm 0.00 in0.0 mm 0.00 in0.0 mm
05:07 AM 46.6°F8.1°C 42.0°F5.6°C 84% 3.4 mph ENE5.5 kmh ENE 7.0 mph11.3 kmh 30.32 in1026.8 mb 0.00 in0.0 mm 0.00 in0.0 mm 0.00 in0.0 mm
05:12 AM 46.6°F8.1°C 42.0°F5.6°C 84% 2.4 mph ENE3.9 kmh ENE 7.0 mph11.3 kmh 30.33 in1027.1 mb 0.00 in0.0 mm 0.00 in0.0 mm 0.00 in0.0 mm
05:17 AM 46.5°F8.1°C 41.9°F5.5°C 84% 3.2 mph ENE5.1 kmh ENE 7.0 mph11.3 kmh 30.33 in1027.1 mb 0.00 in0.0 mm 0.00 in0.0 mm 0.00 in0.0 mm
05:22 AM 46.5°F8.1°C 41.9°F5.5°C 84% 2.4 mph ENE3.9 kmh ENE 7.0 mph11.3 kmh 30.33 in1027.1 mb 0.00 in0.0 mm 0.00 in0.0 mm 0.00 in0.0 mm
05:27 AM 46.6°F8.1°C 42.0°F5.6°C 84% 1.8 mph ENE2.9 kmh ENE 7.0 mph11.3 kmh 30.33 in1027.1 mb 0.00 in0.0 mm 0.00 in0.0 mm 0.00 in0.0 mm
05:32 AM 46.6°F8.1°C 42.3°F5.7°C 85% 2.4 mph ENE3.9 kmh ENE 7.0 mph11.3 kmh 30.33 in1027.1 mb 0.00 in0.0 mm 0.00 in0.0 mm 0.00 in0.0 mm
05:37 AM 46.7°F8.2°C 42.4°F5.8°C 85% 2.0 mph E3.2 kmh E 5.0 mph8.0 kmh 30.33 in1027.1 mb 0.00 in0.0 mm 0.00 in0.0 mm 0.00 in0.0 mm
05:42 AM 46.7°F8.2°C 42.7°F5.9°C 86% 4.1 mph ENE6.6 kmh ENE 8.0 mph12.9 kmh 30.32 in1026.8 mb 0.00 in0.0 mm 0.00 in0.0 mm 0.00 in0.0 mm
05:47 AM 46.9°F8.3°C 42.9°F6.1°C 86% 3.0 mph E4.8 kmh E 8.0 mph12.9 kmh 30.32 in1026.8 mb 0.00 in0.0 mm 0.00 in0.0 mm 0.00 in0.0 mm
05:52 AM 47.0°F8.3°C 43.0°F6.1°C 86% 2.3 mph E3.7 kmh E 8.0 mph12.9 kmh 30.32 in1026.8 mb 0.00 in0.0 mm 0.00 in0.0 mm 0.00 in0.0 mm
05:57 AM 47.0°F8.3°C 43.0°F6.1°C 86% 2.1 mph ENE3.4 kmh ENE 8.0 mph12.9 kmh 30.31 in1026.4 mb 0.00 in0.0 mm 0.00 in0.0 mm 0.00 in0.0 mm
06:02 AM 47.1°F8.4°C 43.4°F6.3°C 87% 4.0 mph ENE6.4 kmh ENE 10.0 mph16.1 kmh 30.31 in1026.4 mb 0.00 in0.0 mm 0.00 in0.0 mm 0.00 in0.0 mm
06:07 AM 47.0°F8.3°C 43.3°F6.3°C 87% 2.6 mph E4.2 kmh E 10.0 mph16.1 kmh 30.31 in1026.4 mb 0.00 in0.0 mm 0.00 in0.0 mm 0.00 in0.0 mm
06:12 AM 47.0°F8.3°C 43.3°F6.3°C 87% 2.6 mph E4.2 kmh E 10.0 mph16.1 kmh 30.31 in1026.4 mb 0.00 in0.0 mm 0.00 in0.0 mm 0.00 in0.0 mm
06:17 AM 47.1°F8.4°C 43.7°F6.5°C 88% 2.9 mph E4.7 kmh E 10.0 mph16.1 kmh 30.31 in1026.4 mb 0.00 in0.0 mm 0.00 in0.0 mm 0.00 in0.0 mm
06:22 AM 47.3°F8.5°C 43.9°F6.6°C 88% 5.0 mph E8.0 kmh E 12.0 mph19.3 kmh 30.30 in1026.1 mb 0.00 in0.0 mm 0.00 in0.0 mm 0.00 in0.0 mm
06:27 AM 47.5°F8.6°C 44.4°F6.9°C 89% 7.0 mph E11.3 kmh E 12.0 mph19.3 kmh 30.30 in1026.1 mb 0.00 in0.0 mm 0.00 in0.0 mm 0.00 in0.0 mm
06:32 AM 47.5°F8.6°C 44.4°F6.9°C 89% 4.0 mph E6.4 kmh E 12.0 mph19.3 kmh 30.30 in1026.1 mb 0.00 in0.0 mm 0.00 in0.0 mm 0.00 in0.0 mm
06:37 AM 47.3°F8.5°C 43.9°F6.6°C 88% 4.3 mph E6.9 kmh E 12.0 mph19.3 kmh 30.29 in1025.7 mb 0.00 in0.0 mm 0.00 in0.0 mm 0.00 in0.0 mm
06:42 AM 47.2°F8.4°C 44.1°F6.7°C 89% 4.2 mph NE6.8 kmh NE 12.0 mph19.3 kmh 30.29 in1025.7 mb 0.00 in0.0 mm 0.00 in0.0 mm 0.00 in0.0 mm
06:47 AM 46.9°F8.3°C 43.5°F6.4°C 88% 5.5 mph E8.9 kmh E 12.0 mph19.3 kmh 30.29 in1025.7 mb 0.00 in0.0 mm 0.00 in0.0 mm 0.00 in0.0 mm
06:52 AM 46.7°F8.2°C 43.6°F6.4°C 89% 6.4 mph E10.3 kmh E 10.0 mph16.1 kmh 30.28 in1025.4 mb 0.00 in0.0 mm 0.00 in0.0 mm 0.00 in0.0 mm
06:57 AM 46.7°F8.2°C 43.6°F6.4°C 89% 4.4 mph E7.1 kmh E 10.0 mph16.1 kmh 30.28 in1025.4 mb 0.00 in0.0 mm 0.00 in0.0 mm 0.00 in0.0 mm
07:02 AM 46.6°F8.1°C 43.5°F6.4°C 89% 5.5 mph E8.9 kmh E 10.0 mph16.1 kmh 30.27 in1025.1 mb 0.00 in0.0 mm 0.00 in0.0 mm 0.00 in0.0 mm
07:07 AM 46.4°F8.0°C 43.3°F6.3°C 89% 6.7 mph E10.8 kmh E 11.0 mph17.7 kmh 30.26 in1024.7 mb 0.00 in0.0 mm 0.00 in0.0 mm 0.00 in0.0 mm
07:11 AM 46.3°F7.9°C 43.2°F6.2°C 89% 4.0 mph E6.4 kmh E 11.0 mph17.7 kmh 30.26 in1024.7 mb 0.00 in0.0 mm 0.00 in0.0 mm 0.00 in0.0 mm
07:16 AM 46.3°F7.9°C 43.5°F6.4°C 90% 3.2 mph E5.1 kmh E 11.0 mph17.7 kmh 30.26 in1024.7 mb 0.00 in0.0 mm 0.00 in0.0 mm 0.00 in0.0 mm
07:21 AM 46.2°F7.9°C 43.4°F6.3°C 90% 4.9 mph E7.9 kmh E 11.0 mph17.7 kmh 30.26 in1024.7 mb 0.00 in0.0 mm 0.00 in0.0 mm 0.00 in0.0 mm
07:26 AM 46.2°F7.9°C 43.4°F6.3°C 90% 2.5 mph ESE4.0 kmh ESE 11.0 mph17.7 kmh 30.26 in1024.7 mb 0.00 in0.0 mm 0.00 in0.0 mm 0.00 in0.0 mm
07:31 AM 46.3°F7.9°C 43.8°F6.6°C 91% 4.3 mph ESE6.9 kmh ESE 11.0 mph17.7 kmh 30.26 in1024.7 mb 0.00 in0.0 mm 0.00 in0.0 mm 0.00 in0.0 mm
07:36 AM 46.3°F7.9°C 43.8°F6.6°C 91% 2.8 mph E4.5 kmh E 9.0 mph14.5 kmh 30.26 in1024.7 mb 0.00 in0.0 mm 0.00 in0.0 mm 0.00 in0.0 mm
07:41 AM 46.4°F8.0°C 43.9°F6.6°C 91% 2.1 mph SE3.4 kmh SE 7.0 mph11.3 kmh 30.27 in1025.1 mb 0.00 in0.0 mm 0.00 in0.0 mm 0.00 in0.0 mm
07:46 AM 46.4°F8.0°C 43.9°F6.6°C 91% 1.4 mph E2.3 kmh E 7.0 mph11.3 kmh 30.27 in1025.1 mb 0.00 in0.0 mm 0.00 in0.0 mm 0.00 in0.0 mm
07:51 AM 46.3°F7.9°C 43.8°F6.6°C 91% 1.7 mph ESE2.7 kmh ESE 7.0 mph11.3 kmh 30.27 in1025.1 mb 0.00 in0.0 mm 0.00 in0.0 mm 0.00 in0.0 mm
07:56 AM 46.4°F8.0°C 43.9°F6.6°C 91% 2.8 mph E4.5 kmh E 7.0 mph11.3 kmh 30.27 in1025.1 mb 0.00 in0.0 mm 0.00 in0.0 mm 0.00 in0.0 mm
08:01 AM 46.5°F8.1°C 44.0°F6.7°C 91% 3.3 mph E5.3 kmh E 7.0 mph11.3 kmh 30.26 in1024.7 mb 0.00 in0.0 mm 0.00 in0.0 mm 0.00 in0.0 mm
08:06 AM 46.5°F8.1°C 44.0°F6.7°C 91% 2.4 mph E3.9 kmh E 7.0 mph11.3 kmh 30.26 in1024.7 mb 0.00 in0.0 mm 0.00 in0.0 mm 0.00 in0.0 mm
08:11 AM 46.5°F8.1°C 44.0°F6.7°C 91% 1.5 mph E2.4 kmh E 7.0 mph11.3 kmh 30.26 in1024.7 mb 0.00 in0.0 mm 0.00 in0.0 mm 0.00 in0.0 mm
08:16 AM 46.5°F8.1°C 44.3°F6.8°C 92% 1.0 mph ENE1.6 kmh ENE 7.0 mph11.3 kmh 30.27 in1025.1 mb 0.00 in0.0 mm 0.00 in0.0 mm 0.00 in0.0 mm
08:22 AM 46.7°F8.2°C 44.5°F6.9°C 92% 1.9 mph E3.1 kmh E 6.0 mph9.7 kmh 30.27 in1025.1 mb 0.00 in0.0 mm 0.00 in0.0 mm 0.00 in0.0 mm
08:27 AM 46.8°F8.2°C 44.6°F7.0°C 92% 2.5 mph ESE4.0 kmh ESE 5.0 mph8.0 kmh 30.27 in1025.1 mb 0.00 in0.0 mm 0.00 in0.0 mm 0.00 in0.0 mm
08:31 AM 46.8°F8.2°C 44.6°F7.0°C 92% 1.5 mph SE2.4 kmh SE 5.0 mph8.0 kmh 30.27 in1025.1 mb 0.00 in0.0 mm 0.00 in0.0 mm 0.00 in0.0 mm
08:36 AM 46.9°F8.3°C 44.7°F7.1°C 92% 3.8 mph E6.1 kmh E 7.0 mph11.3 kmh 30.26 in1024.7 mb 0.00 in0.0 mm 0.00 in0.0 mm 0.00 in0.0 mm
08:42 AM 47.0°F8.3°C 44.8°F7.1°C 92% 2.3 mph ESE3.7 kmh ESE 7.0 mph11.3 kmh 30.26 in1024.7 mb 0.00 in0.0 mm 0.00 in0.0 mm 0.00 in0.0 mm
08:47 AM 47.0°F8.3°C 44.8°F7.1°C 92% 1.6 mph E2.6 kmh E 7.0 mph11.3 kmh 30.26 in1024.7 mb 0.00 in0.0 mm 0.00 in0.0 mm 0.00 in0.0 mm
08:52 AM 47.0°F8.3°C 44.8°F7.1°C 92% 1.9 mph ESE3.1 kmh ESE 7.0 mph11.3 kmh 30.25 in1024.4 mb 0.00 in0.0 mm 0.00 in0.0 mm 0.00 in0.0 mm
08:57 AM 47.1°F8.4°C 44.9°F7.2°C 92% 2.3 mph E3.7 kmh E 5.0 mph8.0 kmh 30.25 in1024.4 mb 0.00 in0.0 mm 0.00 in0.0 mm 0.00 in0.0 mm
09:02 AM 47.2°F8.4°C 45.0°F7.2°C 92% 2.3 mph E3.7 kmh E 5.0 mph8.0 kmh 30.25 in1024.4 mb 0.00 in0.0 mm 0.00 in0.0 mm 0.00 in0.0 mm
09:07 AM 47.3°F8.5°C 45.3°F7.4°C 93% 3.8 mph ESE6.1 kmh ESE 7.0 mph11.3 kmh 30.25 in1024.4 mb 0.00 in0.0 mm 0.00 in0.0 mm 0.00 in0.0 mm
09:12 AM 47.5°F8.6°C 45.6°F7.6°C 93% 3.1 mph ESE5.0 kmh ESE 7.0 mph11.3 kmh 30.25 in1024.4 mb 0.00 in0.0 mm 0.00 in0.0 mm 0.00 in0.0 mm
09:17 AM 47.9°F8.8°C 45.9°F7.7°C 93% 3.7 mph SE6.0 kmh SE 8.0 mph12.9 kmh 30.25 in1024.4 mb 0.00 in0.0 mm 0.00 in0.0 mm 0.00 in0.0 mm
09:22 AM 48.2°F9.0°C 46.2°F7.9°C 93% 3.3 mph ESE5.3 kmh ESE 8.0 mph12.9 kmh 30.25 in1024.4 mb 0.00 in0.0 mm 0.00 in0.0 mm 0.00 in0.0 mm
09:27 AM 48.5°F9.2°C 46.5°F8.1°C 93% 5.4 mph ESE8.7 kmh ESE 11.0 mph17.7 kmh 30.24 in1024.0 mb 0.00 in0.0 mm 0.00 in0.0 mm 0.00 in0.0 mm
09:32 AM 48.7°F9.3°C 46.7°F8.2°C 93% 2.9 mph ESE4.7 kmh ESE 11.0 mph17.7 kmh 30.24 in1024.0 mb 0.00 in0.0 mm 0.00 in0.0 mm 0.00 in0.0 mm
09:37 AM 48.8°F9.3°C 46.8°F8.2°C 93% 4.9 mph SE7.9 kmh SE 11.0 mph17.7 kmh 30.24 in1024.0 mb 0.00 in0.0 mm 0.00 in0.0 mm 0.00 in0.0 mm
09:42 AM 48.9°F9.4°C 46.9°F8.3°C 93% 4.6 mph ESE7.4 kmh ESE 11.0 mph17.7 kmh 30.24 in1024.0 mb 0.00 in0.0 mm 0.00 in0.0 mm 0.00 in0.0 mm
09:47 AM 49.1°F9.5°C 47.1°F8.4°C 93% 2.4 mph ESE3.9 kmh ESE 9.0 mph14.5 kmh 30.23 in1023.7 mb 0.00 in0.0 mm 0.00 in0.0 mm 0.00 in0.0 mm
09:52 AM 49.2°F9.6°C 47.2°F8.4°C 93% 2.2 mph E3.5 kmh E 8.0 mph12.9 kmh 30.23 in1023.7 mb 0.00 in0.0 mm 0.00 in0.0 mm 0.00 in0.0 mm
09:57 AM 49.5°F9.7°C 47.5°F8.6°C 93% 4.6 mph ESE7.4 kmh ESE 9.0 mph14.5 kmh 30.23 in1023.7 mb 0.00 in0.0 mm 0.00 in0.0 mm 0.00 in0.0 mm
10:02 AM 49.8°F9.9°C 47.8°F8.8°C 93% 4.1 mph ESE6.6 kmh ESE 13.0 mph20.9 kmh 30.23 in1023.7 mb 0.00 in0.0 mm 0.00 in0.0 mm 0.00 in0.0 mm
10:07 AM 50.1°F10.1°C 48.1°F8.9°C 93% 3.7 mph SE6.0 kmh SE 13.0 mph20.9 kmh 30.24 in1024.0 mb 0.00 in0.0 mm 0.00 in0.0 mm 0.00 in0.0 mm
10:12 AM 50.4°F10.2°C 48.4°F9.1°C 93% 2.3 mph SSE3.7 kmh SSE 13.0 mph20.9 kmh 30.24 in1024.0 mb 0.00 in0.0 mm 0.00 in0.0 mm 0.00 in0.0 mm
10:17 AM 50.8°F10.4°C 48.8°F9.3°C 93% 4.0 mph SSE6.4 kmh SSE 13.0 mph20.9 kmh 30.23 in1023.7 mb 0.00 in0.0 mm 0.00 in0.0 mm 0.00 in0.0 mm
10:22 AM 51.0°F10.6°C 49.0°F9.4°C 93% 1.6 mph SE2.6 kmh SE 9.0 mph14.5 kmh 30.24 in1024.0 mb 0.00 in0.0 mm 0.00 in0.0 mm 0.00 in0.0 mm
10:27 AM 51.3°F10.7°C 49.3°F9.6°C 93% 2.9 mph SE4.7 kmh SE 9.0 mph14.5 kmh 30.24 in1024.0 mb 0.00 in0.0 mm 0.00 in0.0 mm 0.00 in0.0 mm
10:32 AM 51.6°F10.9°C 49.6°F9.8°C 93% 2.8 mph SE4.5 kmh SE 9.0 mph14.5 kmh 30.23 in1023.7 mb 0.00 in0.0 mm 0.00 in0.0 mm 0.00 in0.0 mm
10:37 AM 52.2°F11.2°C 50.2°F10.1°C 93% 2.9 mph SE4.7 kmh SE 7.0 mph11.3 kmh 30.23 in1023.7 mb 0.00 in0.0 mm 0.00 in0.0 mm 0.00 in0.0 mm
10:42 AM 53.1°F11.7°C 51.1°F10.6°C 93% 5.4 mph SE8.7 kmh SE 13.0 mph20.9 kmh 30.22 in1023.4 mb 0.00 in0.0 mm 0.00 in0.0 mm 0.00 in0.0 mm
10:47 AM 53.8°F12.1°C 51.5°F10.8°C 92% 7.7 mph SE12.4 kmh SE 17.0 mph27.4 kmh 30.22 in1023.4 mb 0.00 in0.0 mm 0.00 in0.0 mm 0.00 in0.0 mm
10:52 AM 54.5°F12.5°C 51.9°F11.1°C 91% 11.2 mph SE18.0 kmh SE 17.0 mph27.4 kmh 30.20 in1022.7 mb 0.00 in0.0 mm 0.00 in0.0 mm 0.00 in0.0 mm
10:57 AM 55.3°F12.9°C 52.4°F11.3°C 90% 9.6 mph SE15.4 kmh SE 17.0 mph27.4 kmh 30.20 in1022.7 mb 0.00 in0.0 mm 0.00 in0.0 mm 0.00 in0.0 mm
11:02 AM 55.9°F13.3°C 52.7°F11.5°C 89% 7.0 mph SE11.3 kmh SE 23.0 mph37.0 kmh 30.21 in1023.0 mb 0.00 in0.0 mm 0.00 in0.0 mm 0.00 in0.0 mm
11:07 AM 56.3°F13.5°C 52.8°F11.6°C 88% 9.2 mph SE14.8 kmh SE 23.0 mph37.0 kmh 30.21 in1023.0 mb 0.00 in0.0 mm 0.00 in0.0 mm 0.00 in0.0 mm
11:12 AM 56.8°F13.8°C 53.0°F11.7°C 87% 7.7 mph SSE12.4 kmh SSE 23.0 mph37.0 kmh 30.20 in1022.7 mb 0.00 in0.0 mm 0.00 in0.0 mm 0.00 in0.0 mm
11:17 AM 57.3°F14.1°C 53.1°F11.7°C 86% 7.9 mph SSE12.7 kmh SSE 23.0 mph37.0 kmh 30.20 in1022.7 mb 0.00 in0.0 mm 0.00 in0.0 mm 0.00 in0.0 mm
11:22 AM 57.8°F14.3°C 53.3°F11.8°C 85% 7.0 mph SSE11.3 kmh SSE 20.0 mph32.2 kmh 30.21 in1023.0 mb 0.00 in0.0 mm 0.00 in0.0 mm 0.00 in0.0 mm
11:27 AM 58.0°F14.4°C 53.2°F11.8°C 84% 6.3 mph SSE10.1 kmh SSE 18.0 mph29.0 kmh 30.20 in1022.7 mb 0.00 in0.0 mm 0.00 in0.0 mm 0.00 in0.0 mm
11:32 AM 58.2°F14.6°C 53.1°F11.7°C 83% 10.3 mph SSE16.6 kmh SSE 20.0 mph32.2 kmh 30.20 in1022.7 mb 0.00 in0.0 mm 0.00 in0.0 mm 0.00 in0.0 mm
11:37 AM 58.8°F14.9°C 53.7°F12.1°C 83% 4.6 mph SSE7.4 kmh SSE 20.0 mph32.2 kmh 30.19 in1022.4 mb 0.00 in0.0 mm 0.00 in0.0 mm 0.00 in0.0 mm
11:42 AM 59.2°F15.1°C 53.4°F11.9°C 81% 8.1 mph SSE13.0 kmh SSE 20.0 mph32.2 kmh 30.19 in1022.4 mb 0.00 in0.0 mm 0.00 in0.0 mm 0.00 in0.0 mm
11:47 AM 59.5°F15.3°C 53.7°F12.1°C 81% 6.4 mph SE10.3 kmh SE 21.0 mph33.8 kmh 30.18 in1022.0 mb 0.00 in0.0 mm 0.00 in0.0 mm 0.00 in0.0 mm
11:52 AM 60.0°F15.6°C 53.9°F12.2°C 80% 7.9 mph SSE12.7 kmh SSE 21.0 mph33.8 kmh 30.18 in1022.0 mb 0.00 in0.0 mm 0.00 in0.0 mm 0.00 in0.0 mm
11:57 AM 60.3°F15.7°C 53.8°F12.1°C 79% 7.8 mph SSE12.6 kmh SSE 23.0 mph37.0 kmh 30.17 in1021.7 mb 0.00 in0.0 mm 0.00 in0.0 mm 0.00 in0.0 mm
12:02 PM 60.7°F15.9°C 53.9°F12.2°C 78% 9.0 mph SSE14.5 kmh SSE 23.0 mph37.0 kmh 30.16 in1021.3 mb 0.00 in0.0 mm 0.00 in0.0 mm 0.00 in0.0 mm
12:07 PM 60.9°F16.1°C 53.4°F11.9°C 76% 13.6 mph SE21.9 kmh SE 23.0 mph37.0 kmh 30.16 in1021.3 mb 0.00 in0.0 mm 0.00 in0.0 mm 0.00 in0.0 mm
12:11 PM 61.1°F16.2°C 53.6°F12.0°C 76% 10.0 mph SSE16.1 kmh SSE 23.0 mph37.0 kmh 30.16 in1021.3 mb 0.00 in0.0 mm 0.00 in0.0 mm 0.00 in0.0 mm
12:16 PM 61.5°F16.4°C 54.0°F12.2°C 76% 8.8 mph SSE14.2 kmh SSE 22.0 mph35.4 kmh 30.16 in1021.3 mb 0.00 in0.0 mm 0.00 in0.0 mm 0.00 in0.0 mm
12:21 PM 62.1°F16.7°C 54.2°F12.3°C 75% 4.1 mph SSE6.6 kmh SSE 22.0 mph35.4 kmh 30.16 in1021.3 mb 0.00 in0.0 mm 0.00 in0.0 mm 0.00 in0.0 mm
12:26 PM 62.6°F17.0°C 54.3°F12.4°C 74% 8.0 mph SSE12.9 kmh SSE 22.0 mph35.4 kmh 30.15 in1021.0 mb 0.00 in0.0 mm 0.00 in0.0 mm 0.00 in0.0 mm
12:31 PM 63.3°F17.4°C 54.3°F12.4°C 72% 7.0 mph SSE11.3 kmh SSE 23.0 mph37.0 kmh 30.15 in1021.0 mb 0.00 in0.0 mm 0.00 in0.0 mm 0.00 in0.0 mm
12:36 PM 63.8°F17.7°C 54.4°F12.4°C 71% 7.5 mph S12.1 kmh S 23.0 mph37.0 kmh 30.14 in1020.7 mb 0.00 in0.0 mm 0.00 in0.0 mm 0.00 in0.0 mm
12:41 PM 64.3°F17.9°C 54.5°F12.5°C 70% 6.1 mph S9.8 kmh S 23.0 mph37.0 kmh 30.14 in1020.7 mb 0.00 in0.0 mm 0.00 in0.0 mm 0.00 in0.0 mm
12:46 PM 64.7°F18.2°C 54.3°F12.4°C 69% 5.3 mph SSE8.5 kmh SSE 23.0 mph37.0 kmh 30.14 in1020.7 mb 0.00 in0.0 mm 0.00 in0.0 mm 0.00 in0.0 mm
12:51 PM 64.9°F18.3°C 54.2°F12.3°C 68% 9.8 mph SSE15.8 kmh SSE 23.0 mph37.0 kmh 30.13 in1020.3 mb 0.00 in0.0 mm 0.00 in0.0 mm 0.00 in0.0 mm
12:56 PM 65.0°F18.3°C 54.2°F12.3°C 68% 8.1 mph SSE13.0 kmh SSE 24.0 mph38.6 kmh 30.13 in1020.3 mb 0.00 in0.0 mm 0.00 in0.0 mm 0.00 in0.0 mm
01:01 PM 65.5°F18.6°C 54.4°F12.4°C 67% 10.2 mph SE16.4 kmh SE 24.0 mph38.6 kmh 30.12 in1020.0 mb 0.00 in0.0 mm 0.00 in0.0 mm 0.00 in0.0 mm
01:06 PM 65.9°F18.8°C 53.8°F12.1°C 65% 9.2 mph S14.8 kmh S 24.0 mph38.6 kmh 30.11 in1019.6 mb 0.00 in0.0 mm 0.00 in0.0 mm 0.00 in0.0 mm
01:11 PM 66.1°F18.9°C 53.6°F12.0°C 64% 8.7 mph S14.0 kmh S 22.0 mph35.4 kmh 30.11 in1019.6 mb 0.00 in0.0 mm 0.00 in0.0 mm 0.00 in0.0 mm
01:16 PM 66.2°F19.0°C 53.2°F11.8°C 63% 12.0 mph S19.3 kmh S 23.0 mph37.0 kmh 30.10 in1019.3 mb 0.00 in0.0 mm 0.00 in0.0 mm 0.00 in0.0 mm
01:21 PM 66.6°F19.2°C 54.0°F12.2°C 64% 5.7 mph SSE9.2 kmh SSE 23.0 mph37.0 kmh 30.10 in1019.3 mb 0.00 in0.0 mm 0.00 in0.0 mm 0.00 in0.0 mm
01:26 PM 66.8°F19.3°C 52.9°F11.6°C 61% 15.1 mph SSE24.3 kmh SSE 31.0 mph49.9 kmh 30.09 in1019.0 mb 0.00 in0.0 mm 0.00 in0.0 mm 0.00 in0.0 mm
01:31 PM 66.9°F19.4°C 52.6°F11.4°C 60% 14.1 mph SE22.7 kmh SE 31.0 mph49.9 kmh 30.08 in1018.6 mb 0.00 in0.0 mm 0.00 in0.0 mm 0.00 in0.0 mm
01:36 PM 66.9°F19.4°C 53.2°F11.8°C 61% 12.1 mph SSE19.5 kmh SSE 31.0 mph49.9 kmh 30.08 in1018.6 mb 0.00 in0.0 mm 0.00 in0.0 mm 0.00 in0.0 mm
01:41 PM 67.1°F19.5°C 52.9°F11.6°C 60% 8.5 mph S13.7 kmh S 31.0 mph49.9 kmh 30.08 in1018.6 mb 0.00 in0.0 mm 0.00 in0.0 mm 0.00 in0.0 mm
01:46 PM 67.1°F19.5°C 52.9°F11.6°C 60% 12.6 mph SSE20.3 kmh SSE 28.0 mph45.1 kmh 30.07 in1018.3 mb 0.00 in0.0 mm 0.00 in0.0 mm 0.00 in0.0 mm
01:51 PM 67.2°F19.6°C 53.3°F11.8°C 61% 9.5 mph S15.3 kmh S 28.0 mph45.1 kmh 30.07 in1018.3 mb 0.00 in0.0 mm 0.00 in0.0 mm 0.00 in0.0 mm
01:56 PM 67.4°F19.7°C 53.5°F11.9°C 61% 10.0 mph SSE16.1 kmh SSE 27.0 mph43.5 kmh 30.06 in1017.9 mb 0.00 in0.0 mm 0.00 in0.0 mm 0.00 in0.0 mm
02:01 PM 67.8°F19.9°C 53.4°F11.9°C 60% 10.8 mph SSE17.4 kmh SSE 27.0 mph43.5 kmh 30.05 in1017.6 mb 0.00 in0.0 mm 0.00 in0.0 mm 0.00 in0.0 mm
02:06 PM 67.9°F19.9°C 53.5°F11.9°C 60% 11.5 mph SSE18.5 kmh SSE 27.0 mph43.5 kmh 30.05 in1017.6 mb 0.00 in0.0 mm 0.00 in0.0 mm 0.00 in0.0 mm
02:11 PM 68.2°F20.1°C 54.0°F12.2°C 60% 12.0 mph SSE19.3 kmh SSE 27.0 mph43.5 kmh 30.04 in1017.3 mb 0.00 in0.0 mm 0.00 in0.0 mm 0.00 in0.0 mm
02:16 PM 68.4°F20.2°C 54.1°F12.3°C 60% 11.4 mph SSE18.3 kmh SSE 28.0 mph45.1 kmh 30.03 in1016.9 mb 0.00 in0.0 mm 0.00 in0.0 mm 0.00 in0.0 mm
02:21 PM 68.6°F20.3°C 54.3°F12.4°C 60% 9.7 mph SSE15.6 kmh SSE 28.0 mph45.1 kmh 30.03 in1016.9 mb 0.00 in0.0 mm 0.00 in0.0 mm 0.00 in0.0 mm
02:26 PM 68.9°F20.5°C 54.6°F12.6°C 60% 9.5 mph SE15.3 kmh SE 28.0 mph45.1 kmh 30.02 in1016.6 mb 0.00 in0.0 mm 0.00 in0.0 mm 0.00 in0.0 mm
02:31 PM 68.9°F20.5°C 54.6°F12.6°C 60% 6.9 mph SSE11.1 kmh SSE 24.0 mph38.6 kmh 30.02 in1016.6 mb 0.00 in0.0 mm 0.00 in0.0 mm 0.00 in0.0 mm
02:36 PM 69.2°F20.7°C 54.9°F12.7°C 60% 9.5 mph SE15.3 kmh SE 24.0 mph38.6 kmh 30.02 in1016.6 mb 0.00 in0.0 mm 0.00 in0.0 mm 0.00 in0.0 mm
02:41 PM 69.7°F20.9°C 55.4°F13.0°C 60% 5.5 mph SSE8.9 kmh SSE 21.0 mph33.8 kmh 30.02 in1016.6 mb 0.00 in0.0 mm 0.00 in0.0 mm 0.00 in0.0 mm
02:46 PM 69.7°F20.9°C 54.9°F12.7°C 59% 11.9 mph SSE19.2 kmh SSE 21.0 mph33.8 kmh 30.02 in1016.6 mb 0.00 in0.0 mm 0.00 in0.0 mm 0.00 in0.0 mm
02:51 PM 69.3°F20.7°C 55.0°F12.8°C 60% 9.6 mph SSE15.4 kmh SSE 29.0 mph46.7 kmh 30.01 in1016.3 mb 0.00 in0.0 mm 0.00 in0.0 mm 0.00 in0.0 mm
02:56 PM 69.5°F20.8°C 55.2°F12.9°C 60% 6.7 mph S10.8 kmh S 29.0 mph46.7 kmh 30.00 in1015.9 mb 0.00 in0.0 mm 0.00 in0.0 mm 0.00 in0.0 mm
03:01 PM 69.8°F21.0°C 55.0°F12.8°C 59% 9.7 mph S15.6 kmh S 29.0 mph46.7 kmh 30.00 in1015.9 mb 0.00 in0.0 mm 0.00 in0.0 mm 0.00 in0.0 mm
03:06 PM 70.0°F21.1°C 55.2°F12.9°C 59% 10.1 mph S16.3 kmh S 29.0 mph46.7 kmh 29.99 in1015.6 mb 0.00 in0.0 mm 0.00 in0.0 mm 0.00 in0.0 mm
03:11 PM 70.3°F21.3°C 55.5°F13.1°C 59% 7.7 mph SSE12.4 kmh SSE 26.0 mph41.8 kmh 29.98 in1015.2 mb 0.00 in0.0 mm 0.00 in0.0 mm 0.00 in0.0 mm
03:16 PM 70.3°F21.3°C 54.5°F12.5°C 57% 8.4 mph S13.5 kmh S 26.0 mph41.8 kmh 29.98 in1015.2 mb 0.00 in0.0 mm 0.00 in0.0 mm 0.00 in0.0 mm
03:21 PM 70.1°F21.2°C 54.3°F12.4°C 57% 10.9 mph SSE17.5 kmh SSE 28.0 mph45.1 kmh 29.98 in1015.2 mb 0.00 in0.0 mm 0.00 in0.0 mm 0.00 in0.0 mm
03:26 PM 70.2°F21.2°C 54.4°F12.4°C 57% 8.3 mph S13.4 kmh S 28.0 mph45.1 kmh 29.98 in1015.2 mb 0.00 in0.0 mm 0.00 in0.0 mm 0.00 in0.0 mm
03:31 PM 70.3°F21.3°C 54.5°F12.5°C 57% 7.6 mph S12.2 kmh S 28.0 mph45.1 kmh 29.97 in1014.9 mb 0.00 in0.0 mm 0.00 in0.0 mm 0.00 in0.0 mm
03:36 PM 70.4°F21.3°C 54.6°F12.6°C 57% 9.0 mph S14.5 kmh S 28.0 mph45.1 kmh 29.97 in1014.9 mb 0.00 in0.0 mm 0.00 in0.0 mm 0.00 in0.0 mm
03:41 PM 70.5°F21.4°C 54.7°F12.6°C 57% 7.2 mph S11.6 kmh S 19.0 mph30.6 kmh 29.97 in1014.9 mb 0.00 in0.0 mm 0.00 in0.0 mm 0.00 in0.0 mm
03:46 PM 70.5°F21.4°C 54.2°F12.3°C 56% 10.7 mph S17.2 kmh S 19.0 mph30.6 kmh 29.96 in1014.6 mb 0.00 in0.0 mm 0.00 in0.0 mm 0.00 in0.0 mm
03:51 PM 70.6°F21.4°C 54.8°F12.7°C 57% 6.4 mph S10.3 kmh S 20.0 mph32.2 kmh 29.97 in1014.9 mb 0.00 in0.0 mm 0.00 in0.0 mm 0.00 in0.0 mm
03:56 PM 70.6°F21.4°C 54.3°F12.4°C 56% 9.2 mph S14.8 kmh S 25.0 mph40.2 kmh 29.96 in1014.6 mb 0.00 in0.0 mm 0.00 in0.0 mm 0.00 in0.0 mm
04:01 PM 70.7°F21.5°C 54.4°F12.4°C 56% 10.0 mph S16.1 kmh S 25.0 mph40.2 kmh 29.95 in1014.2 mb 0.00 in0.0 mm 0.00 in0.0 mm 0.00 in0.0 mm
04:06 PM 70.7°F21.5°C 54.4°F12.4°C 56% 11.0 mph SSE17.7 kmh SSE 25.0 mph40.2 kmh 29.95 in1014.2 mb 0.00 in0.0 mm 0.00 in0.0 mm 0.00 in0.0 mm
04:11 PM 70.7°F21.5°C 54.4°F12.4°C 56% 8.4 mph S13.5 kmh S 25.0 mph40.2 kmh 29.95 in1014.2 mb 0.00 in0.0 mm 0.00 in0.0 mm 0.00 in0.0 mm
04:16 PM 70.8°F21.6°C 54.5°F12.5°C 56% 8.4 mph SSE13.5 kmh SSE 21.0 mph33.8 kmh 29.94 in1013.9 mb 0.00 in0.0 mm 0.00 in0.0 mm 0.00 in0.0 mm
04:21 PM 70.9°F21.6°C 55.1°F12.8°C 57% 11.8 mph S19.0 kmh S 25.0 mph40.2 kmh 29.94 in1013.9 mb 0.00 in0.0 mm 0.00 in0.0 mm 0.00 in0.0 mm
04:26 PM 70.8°F21.6°C 55.0°F12.8°C 57% 11.2 mph SSE18.0 kmh SSE 25.0 mph40.2 kmh 29.94 in1013.9 mb 0.00 in0.0 mm 0.00 in0.0 mm 0.00 in0.0 mm
04:31 PM 70.7°F21.5°C 54.9°F12.7°C 57% 12.9 mph S20.8 kmh S 25.0 mph40.2 kmh 29.93 in1013.5 mb 0.00 in0.0 mm 0.00 in0.0 mm 0.00 in0.0 mm
04:36 PM 70.6°F21.4°C 55.3°F12.9°C 58% 11.2 mph S18.0 kmh S 25.0 mph40.2 kmh 29.93 in1013.5 mb 0.00 in0.0 mm 0.00 in0.0 mm 0.00 in0.0 mm
04:41 PM 70.6°F21.4°C 55.3°F12.9°C 58% 7.4 mph S11.9 kmh S 25.0 mph40.2 kmh 29.93 in1013.5 mb 0.00 in0.0 mm 0.00 in0.0 mm 0.00 in0.0 mm
04:46 PM 70.5°F21.4°C 55.7°F13.2°C 59% 5.9 mph S9.5 kmh S 25.0 mph40.2 kmh 29.93 in1013.5 mb 0.00 in0.0 mm 0.00 in0.0 mm 0.00 in0.0 mm
04:51 PM 70.4°F21.3°C 55.6°F13.1°C 59% 9.0 mph S14.5 kmh S 22.0 mph35.4 kmh 29.93 in1013.5 mb 0.00 in0.0 mm 0.00 in0.0 mm 0.00 in0.0 mm
04:56 PM 70.3°F21.3°C 55.5°F13.1°C 59% 11.2 mph S18.0 kmh S 22.0 mph35.4 kmh 29.92 in1013.2 mb 0.00 in0.0 mm 0.00 in0.0 mm 0.00 in0.0 mm
05:01 PM 70.2°F21.2°C 55.4°F13.0°C 59% 13.8 mph S22.2 kmh S 23.0 mph37.0 kmh 29.92 in1013.2 mb 0.00 in0.0 mm 0.00 in0.0 mm 0.00 in0.0 mm
05:06 PM 70.2°F21.2°C 55.4°F13.0°C 59% 8.4 mph S13.5 kmh S 23.0 mph37.0 kmh 29.91 in1012.9 mb 0.00 in0.0 mm 0.00 in0.0 mm 0.00 in0.0 mm
05:10 PM 70.1°F21.2°C 55.7°F13.2°C 60% 7.6 mph S12.2 kmh S 23.0 mph37.0 kmh 29.91 in1012.9 mb 0.00 in0.0 mm 0.00 in0.0 mm 0.00 in0.0 mm
05:15 PM 70.1°F21.2°C 55.7°F13.2°C 60% 8.4 mph SSE13.5 kmh SSE 23.0 mph37.0 kmh 29.90 in1012.5 mb 0.00 in0.0 mm 0.00 in0.0 mm 0.00 in0.0 mm
05:20 PM 69.9°F21.1°C 55.6°F13.1°C 60% 5.3 mph S8.5 kmh S 19.0 mph30.6 kmh 29.89 in1012.2 mb 0.00 in0.0 mm 0.00 in0.0 mm 0.00 in0.0 mm
05:25 PM 69.8°F21.0°C 55.5°F13.1°C 60% 8.8 mph SSE14.2 kmh SSE 19.0 mph30.6 kmh 29.90 in1012.5 mb 0.00 in0.0 mm 0.00 in0.0 mm 0.00 in0.0 mm
05:30 PM 69.7°F20.9°C 55.8°F13.2°C 61% 11.1 mph SSE17.9 kmh SSE 21.0 mph33.8 kmh 29.88 in1011.9 mb 0.00 in0.0 mm 0.00 in0.0 mm 0.00 in0.0 mm
05:35 PM 69.7°F20.9°C 55.8°F13.2°C 61% 10.4 mph S16.7 kmh S 21.0 mph33.8 kmh 29.88 in1011.9 mb 0.00 in0.0 mm 0.00 in0.0 mm 0.00 in0.0 mm
05:40 PM 69.6°F20.9°C 55.7°F13.2°C 61% 7.1 mph SSE11.4 kmh SSE 22.0 mph35.4 kmh 29.88 in1011.9 mb 0.00 in0.0 mm 0.00 in0.0 mm 0.00 in0.0 mm
05:45 PM 69.5°F20.8°C 55.6°F13.1°C 61% 12.8 mph S20.6 kmh S 25.0 mph40.2 kmh 29.88 in1011.9 mb 0.00 in0.0 mm 0.00 in0.0 mm 0.00 in0.0 mm
05:50 PM 69.5°F20.8°C 55.6°F13.1°C 61% 10.4 mph S16.7 kmh S 25.0 mph40.2 kmh 29.87 in1011.5 mb 0.00 in0.0 mm 0.00 in0.0 mm 0.00 in0.0 mm
05:55 PM 69.4°F20.8°C 55.5°F13.1°C 61% 10.1 mph SSE16.3 kmh SSE 25.0 mph40.2 kmh 29.87 in1011.5 mb 0.00 in0.0 mm 0.00 in0.0 mm 0.00 in0.0 mm
06:00 PM 69.4°F20.8°C 56.0°F13.3°C 62% 9.3 mph S15.0 kmh S 25.0 mph40.2 kmh 29.88 in1011.9 mb 0.00 in0.0 mm 0.00 in0.0 mm 0.00 in0.0 mm
06:05 PM 69.3°F20.7°C 55.9°F13.3°C 62% 3.9 mph S6.3 kmh S 22.0 mph35.4 kmh 29.88 in1011.9 mb 0.00 in0.0 mm 0.00 in0.0 mm 0.00 in0.0 mm
06:10 PM 69.3°F20.7°C 55.9°F13.3°C 62% 5.5 mph SSE8.9 kmh SSE 22.0 mph35.4 kmh 29.88 in1011.9 mb 0.00 in0.0 mm 0.00 in0.0 mm 0.00 in0.0 mm
06:15 PM 69.2°F20.7°C 56.3°F13.5°C 63% 13.1 mph S21.1 kmh S 22.0 mph35.4 kmh 29.87 in1011.5 mb 0.00 in0.0 mm 0.00 in0.0 mm 0.00 in0.0 mm
06:20 PM 69.1°F20.6°C 56.2°F13.4°C 63% 9.4 mph SSE15.1 kmh SSE 22.0 mph35.4 kmh 29.87 in1011.5 mb 0.00 in0.0 mm 0.00 in0.0 mm 0.00 in0.0 mm
06:25 PM 69.0°F20.6°C 56.1°F13.4°C 63% 6.3 mph SSE10.1 kmh SSE 22.0 mph35.4 kmh 29.87 in1011.5 mb 0.00 in0.0 mm 0.00 in0.0 mm 0.00 in0.0 mm
06:30 PM 69.0°F20.6°C 56.1°F13.4°C 63% 6.3 mph S10.1 kmh S 23.0 mph37.0 kmh 29.87 in1011.5 mb 0.00 in0.0 mm 0.00 in0.0 mm 0.00 in0.0 mm
06:35 PM 68.9°F20.5°C 56.0°F13.3°C 63% 9.2 mph SSE14.8 kmh SSE 23.0 mph37.0 kmh 29.87 in1011.5 mb 0.00 in0.0 mm 0.00 in0.0 mm 0.00 in0.0 mm
06:40 PM 68.8°F20.4°C 56.3°F13.5°C 64% 9.8 mph S15.8 kmh S 23.0 mph37.0 kmh 29.87 in1011.5 mb 0.00 in0.0 mm 0.00 in0.0 mm 0.00 in0.0 mm
06:45 PM 68.7°F20.4°C 56.2°F13.4°C 64% 9.6 mph SSE15.4 kmh SSE 19.0 mph30.6 kmh 29.86 in1011.2 mb 0.00 in0.0 mm 0.00 in0.0 mm 0.00 in0.0 mm
06:50 PM 68.6°F20.3°C 56.1°F13.4°C 64% 7.9 mph SSE12.7 kmh SSE 19.0 mph30.6 kmh 29.86 in1011.2 mb 0.00 in0.0 mm 0.00 in0.0 mm 0.00 in0.0 mm
06:55 PM 68.6°F20.3°C 56.1°F13.4°C 64% 6.6 mph SSE10.6 kmh SSE 19.0 mph30.6 kmh 29.85 in1010.8 mb 0.00 in0.0 mm 0.00 in0.0 mm 0.00 in0.0 mm
07:00 PM 68.5°F20.3°C 56.5°F13.6°C 65% 10.7 mph SSE17.2 kmh SSE 21.0 mph33.8 kmh 29.85 in1010.8 mb 0.00 in0.0 mm 0.00 in0.0 mm 0.00 in0.0 mm
07:05 PM 68.5°F20.3°C 56.5°F13.6°C 65% 5.5 mph SSE8.9 kmh SSE 21.0 mph33.8 kmh 29.85 in1010.8 mb 0.00 in0.0 mm 0.00 in0.0 mm 0.00 in0.0 mm
07:10 PM 68.4°F20.2°C 56.4°F13.6°C 65% 6.6 mph S10.6 kmh S 21.0 mph33.8 kmh 29.85 in1010.8 mb 0.00 in0.0 mm 0.00 in0.0 mm 0.00 in0.0 mm
07:15 PM 68.4°F20.2°C 56.4°F13.6°C 65% 7.5 mph SSE12.1 kmh SSE 21.0 mph33.8 kmh 29.84 in1010.5 mb 0.00 in0.0 mm 0.00 in0.0 mm 0.00 in0.0 mm
07:20 PM 68.4°F20.2°C 56.4°F13.6°C 65% 8.7 mph SSE14.0 kmh SSE 17.0 mph27.4 kmh 29.84 in1010.5 mb 0.00 in0.0 mm 0.00 in0.0 mm 0.00 in0.0 mm
07:25 PM 68.4°F20.2°C 56.4°F13.6°C 65% 8.9 mph SSE14.3 kmh SSE 17.0 mph27.4 kmh 29.84 in1010.5 mb 0.00 in0.0 mm 0.00 in0.0 mm 0.00 in0.0 mm
07:30 PM 68.3°F20.2°C 56.3°F13.5°C 65% 7.7 mph SE12.4 kmh SE 16.0 mph25.7 kmh 29.84 in1010.5 mb 0.00 in0.0 mm 0.00 in0.0 mm 0.00 in0.0 mm
07:35 PM 68.3°F20.2°C 56.3°F13.5°C 65% 6.3 mph SSE10.1 kmh SSE 16.0 mph25.7 kmh 29.83 in1010.2 mb 0.00 in0.0 mm 0.00 in0.0 mm 0.00 in0.0 mm
07:40 PM 68.3°F20.2°C 56.7°F13.7°C 66% 7.3 mph SE11.7 kmh SE 17.0 mph27.4 kmh 29.83 in1010.2 mb 0.00 in0.0 mm 0.00 in0.0 mm 0.00 in0.0 mm
07:45 PM 68.3°F20.2°C 56.7°F13.7°C 66% 6.5 mph SSE10.5 kmh SSE 19.0 mph30.6 kmh 29.82 in1009.8 mb 0.00 in0.0 mm 0.00 in0.0 mm 0.00 in0.0 mm
07:50 PM 68.3°F20.2°C 56.7°F13.7°C 66% 6.7 mph SSE10.8 kmh SSE 19.0 mph30.6 kmh 29.82 in1009.8 mb 0.00 in0.0 mm 0.00 in0.0 mm 0.00 in0.0 mm
07:55 PM 68.3°F20.2°C 56.7°F13.7°C 66% 9.1 mph SE14.6 kmh SE 19.0 mph30.6 kmh 29.81 in1009.5 mb 0.00 in0.0 mm 0.00 in0.0 mm 0.00 in0.0 mm
08:00 PM 68.2°F20.1°C 56.6°F13.7°C 66% 9.7 mph SSE15.6 kmh SSE 19.0 mph30.6 kmh 29.82 in1009.8 mb 0.00 in0.0 mm 0.00 in0.0 mm 0.00 in0.0 mm
08:05 PM 68.4°F20.2°C 56.4°F13.6°C 65% 10.7 mph SSE17.2 kmh SSE 23.0 mph37.0 kmh 29.81 in1009.5 mb 0.00 in0.0 mm 0.00 in0.0 mm 0.00 in0.0 mm
08:10 PM 68.3°F20.2°C 56.3°F13.5°C 65% 6.3 mph SSE10.1 kmh SSE 23.0 mph37.0 kmh 29.81 in1009.5 mb 0.00 in0.0 mm 0.00 in0.0 mm 0.00 in0.0 mm
08:15 PM 68.3°F20.2°C 56.3°F13.5°C 65% 6.9 mph SSE11.1 kmh SSE 23.0 mph37.0 kmh 29.81 in1009.5 mb 0.00 in0.0 mm 0.00 in0.0 mm 0.00 in0.0 mm
08:20 PM 68.3°F20.2°C 56.3°F13.5°C 65% 5.5 mph SSE8.9 kmh SSE 23.0 mph37.0 kmh 29.81 in1009.5 mb 0.00 in0.0 mm 0.00 in0.0 mm 0.00 in0.0 mm
08:25 PM 68.2°F20.1°C 56.6°F13.7°C 66% 4.7 mph S7.6 kmh S 20.0 mph32.2 kmh 29.81 in1009.5 mb 0.00 in0.0 mm 0.00 in0.0 mm 0.00 in0.0 mm
08:30 PM 68.2°F20.1°C 56.6°F13.7°C 66% 8.2 mph SSE13.2 kmh SSE 25.0 mph40.2 kmh 29.81 in1009.5 mb 0.00 in0.0 mm 0.00 in0.0 mm 0.00 in0.0 mm
08:35 PM 68.1°F20.1°C 56.5°F13.6°C 66% 9.3 mph S15.0 kmh S 25.0 mph40.2 kmh 29.80 in1009.1 mb 0.00 in0.0 mm 0.00 in0.0 mm 0.00 in0.0 mm
08:40 PM 68.1°F20.1°C 56.5°F13.6°C 66% 10.4 mph SSE16.7 kmh SSE 29.0 mph46.7 kmh 29.80 in1009.1 mb 0.00 in0.0 mm 0.00 in0.0 mm 0.00 in0.0 mm
08:45 PM 67.7°F19.8°C 57.3°F14.1°C 69% 7.8 mph S12.6 kmh S 29.0 mph46.7 kmh 29.80 in1009.1 mb 0.00 in0.0 mm 0.00 in0.0 mm 0.00 in0.0 mm
08:50 PM 67.2°F19.6°C 56.9°F13.8°C 69% 8.4 mph S13.5 kmh S 29.0 mph46.7 kmh 29.80 in1009.1 mb 0.00 in0.0 mm 0.00 in0.0 mm 0.00 in0.0 mm
08:55 PM 67.1°F19.5°C 56.8°F13.8°C 69% 7.8 mph S12.6 kmh S 29.0 mph46.7 kmh 29.79 in1008.8 mb 0.00 in0.0 mm 0.00 in0.0 mm 0.00 in0.0 mm
09:00 PM 67.0°F19.4°C 56.9°F13.8°C 70% 5.9 mph SSE9.5 kmh SSE 18.0 mph29.0 kmh 29.80 in1009.1 mb 0.00 in0.0 mm 0.00 in0.0 mm 0.00 in0.0 mm
09:05 PM 66.7°F19.3°C 57.0°F13.9°C 71% 7.8 mph S12.6 kmh S 18.0 mph29.0 kmh 29.79 in1008.8 mb 0.01 in0.3 mm 0.12 in3.0 mm 0.01 in0.3 mm
09:10 PM 66.1°F18.9°C 57.2°F14.0°C 73% 5.1 mph S8.2 kmh S 20.0 mph32.2 kmh 29.80 in1009.1 mb 0.01 in0.3 mm 0.00 in0.0 mm 0.01 in0.3 mm
09:15 PM 65.5°F18.6°C 57.5°F14.2°C 75% 4.6 mph SSE7.4 kmh SSE 20.0 mph32.2 kmh 29.80 in1009.1 mb 0.01 in0.3 mm 0.00 in0.0 mm 0.01 in0.3 mm
09:20 PM 65.0°F18.3°C 57.7°F14.3°C 77% 4.5 mph S7.2 kmh S 20.0 mph32.2 kmh 29.80 in1009.1 mb 0.01 in0.3 mm 0.00 in0.0 mm 0.01 in0.3 mm
09:25 PM 64.6°F18.1°C 58.0°F14.4°C 79% 3.9 mph S6.3 kmh S 15.0 mph24.1 kmh 29.80 in1009.1 mb 0.02 in0.5 mm 0.12 in3.0 mm 0.02 in0.5 mm
09:30 PM 64.0°F17.8°C 57.8°F14.3°C 80% 4.9 mph S7.9 kmh S 15.0 mph24.1 kmh 29.79 in1008.8 mb 0.03 in0.8 mm 0.12 in3.0 mm 0.03 in0.8 mm
09:35 PM 63.5°F17.5°C 58.0°F14.4°C 82% 4.1 mph SSE6.6 kmh SSE 15.0 mph24.1 kmh 29.79 in1008.8 mb 0.04 in1.0 mm 0.12 in3.0 mm 0.04 in1.0 mm
09:40 PM 63.1°F17.3°C 58.2°F14.6°C 84% 3.1 mph SSE5.0 kmh SSE 13.0 mph20.9 kmh 29.78 in1008.5 mb 0.06 in1.5 mm 0.24 in6.1 mm 0.06 in1.5 mm
09:45 PM 62.6°F17.0°C 58.0°F14.4°C 85% 4.6 mph SSE7.4 kmh SSE 16.0 mph25.7 kmh 29.77 in1008.1 mb 0.06 in1.5 mm 0.00 in0.0 mm 0.06 in1.5 mm
09:50 PM 62.4°F16.9°C 58.2°F14.6°C 86% 6.1 mph SSE9.8 kmh SSE 16.0 mph25.7 kmh 29.77 in1008.1 mb 0.06 in1.5 mm 0.00 in0.0 mm 0.06 in1.5 mm
09:55 PM 62.2°F16.8°C 58.0°F14.4°C 86% 7.3 mph SSE11.7 kmh SSE 16.0 mph25.7 kmh 29.77 in1008.1 mb 0.07 in1.8 mm 0.12 in3.0 mm 0.07 in1.8 mm
10:00 PM 62.0°F16.7°C 58.1°F14.5°C 87% 5.6 mph SSE9.0 kmh SSE 16.0 mph25.7 kmh 29.76 in1007.8 mb 0.07 in1.8 mm 0.00 in0.0 mm 0.07 in1.8 mm
10:05 PM 61.7°F16.5°C 58.1°F14.5°C 88% 5.7 mph SSE9.2 kmh SSE 14.0 mph22.5 kmh 29.76 in1007.8 mb 0.07 in1.8 mm 0.00 in0.0 mm 0.08 in2.0 mm
10:09 PM 61.6°F16.4°C 58.0°F14.4°C 88% 5.2 mph S8.4 kmh S 14.0 mph22.5 kmh 29.76 in1007.8 mb 0.07 in1.8 mm 0.00 in0.0 mm 0.08 in2.0 mm
10:14 PM 61.5°F16.4°C 58.2°F14.6°C 89% 6.3 mph S10.1 kmh S 13.0 mph20.9 kmh 29.76 in1007.8 mb 0.07 in1.8 mm 0.00 in0.0 mm 0.08 in2.0 mm
10:19 PM 61.5°F16.4°C 58.2°F14.6°C 89% 5.6 mph SSE9.0 kmh SSE 13.0 mph20.9 kmh 29.76 in1007.8 mb 0.07 in1.8 mm 0.00 in0.0 mm 0.08 in2.0 mm
10:24 PM 61.4°F16.3°C 58.1°F14.5°C 89% 6.4 mph SSE10.3 kmh SSE 15.0 mph24.1 kmh 29.76 in1007.8 mb 0.07 in1.8 mm 0.00 in0.0 mm 0.09 in2.3 mm
10:29 PM 61.3°F16.3°C 58.3°F14.6°C 90% 6.4 mph S10.3 kmh S 16.0 mph25.7 kmh 29.75 in1007.5 mb 0.08 in2.0 mm 0.12 in3.0 mm 0.11 in2.8 mm
10:34 PM 61.1°F16.2°C 58.4°F14.7°C 91% 4.7 mph SSE7.6 kmh SSE 16.0 mph25.7 kmh 29.75 in1007.5 mb 0.08 in2.0 mm 0.00 in0.0 mm 0.12 in3.0 mm
10:39 PM 60.9°F16.1°C 58.5°F14.7°C 92% 4.4 mph SSE7.1 kmh SSE 17.0 mph27.4 kmh 29.75 in1007.5 mb 0.08 in2.0 mm 0.00 in0.0 mm 0.13 in3.3 mm
10:44 PM 60.8°F16.0°C 58.4°F14.7°C 92% 4.4 mph S7.1 kmh S 17.0 mph27.4 kmh 29.75 in1007.5 mb 0.09 in2.3 mm 0.12 in3.0 mm 0.15 in3.8 mm
10:49 PM 60.6°F15.9°C 58.5°F14.7°C 93% 6.1 mph SSE9.8 kmh SSE 17.0 mph27.4 kmh 29.74 in1007.1 mb 0.10 in2.5 mm 0.12 in3.0 mm 0.16 in4.1 mm
10:54 PM 60.5°F15.8°C 58.4°F14.7°C 93% 7.1 mph SSE11.4 kmh SSE 14.0 mph22.5 kmh 29.74 in1007.1 mb 0.10 in2.5 mm 0.00 in0.0 mm 0.17 in4.3 mm
10:59 PM 60.5°F15.8°C 58.7°F14.8°C 94% 6.0 mph SSE9.7 kmh SSE 16.0 mph25.7 kmh 29.73 in1006.8 mb 0.12 in3.0 mm 0.24 in6.1 mm 0.19 in4.8 mm
11:04 PM 60.5°F15.8°C 58.7°F14.8°C 94% 6.8 mph SSE10.9 kmh SSE 16.0 mph25.7 kmh 29.74 in1007.1 mb 0.13 in3.3 mm 0.01 in0.3 mm 0.20 in5.1 mm
11:09 PM 60.4°F15.8°C 58.6°F14.8°C 94% 5.8 mph SSE9.3 kmh SSE 16.0 mph25.7 kmh 29.73 in1006.8 mb 0.14 in3.6 mm 0.12 in3.0 mm 0.22 in5.6 mm
11:14 PM 60.4°F15.8°C 58.6°F14.8°C 94% 6.2 mph S10.0 kmh S 16.0 mph25.7 kmh 29.74 in1007.1 mb 0.17 in4.3 mm 0.36 in9.1 mm 0.25 in6.4 mm
11:19 PM 60.4°F15.8°C 58.9°F14.9°C 95% 5.2 mph SW8.4 kmh SW 14.0 mph22.5 kmh 29.74 in1007.1 mb 0.21 in5.3 mm 0.48 in12.2 mm 0.29 in7.4 mm
11:24 PM 60.4°F15.8°C 58.9°F14.9°C 95% 6.9 mph WSW11.1 kmh WSW 14.0 mph22.5 kmh 29.79 in1008.8 mb 0.27 in6.9 mm 0.72 in18.3 mm 0.36 in9.1 mm
11:29 PM 60.6°F15.9°C 59.4°F15.2°C 96% 7.8 mph S12.6 kmh S 16.0 mph25.7 kmh 29.76 in1007.8 mb 0.40 in10.2 mm 1.56 in39.6 mm 0.51 in13.0 mm
11:34 PM 60.8°F16.0°C 59.6°F15.3°C 96% 4.2 mph S6.8 kmh S 17.0 mph27.4 kmh 29.76 in1007.8 mb 0.43 in10.9 mm 0.36 in9.1 mm 0.55 in14.0 mm
11:39 PM 61.1°F16.2°C 59.9°F15.5°C 96% 6.4 mph S10.3 kmh S 17.0 mph27.4 kmh 29.77 in1008.1 mb 0.45 in11.4 mm 0.24 in6.1 mm 0.58 in14.7 mm
11:44 PM 61.3°F16.3°C 60.1°F15.6°C 96% 4.7 mph S7.6 kmh S 17.0 mph27.4 kmh 29.77 in1008.1 mb 0.44 in11.2 mm 0.00 in0.0 mm 0.59 in15.0 mm
11:49 PM 61.5°F16.4°C 60.3°F15.7°C 96% 4.3 mph SSW6.9 kmh SSW 17.0 mph27.4 kmh 29.77 in1008.1 mb 0.45 in11.4 mm 0.12 in3.0 mm 0.61 in15.5 mm
11:54 PM 61.7°F16.5°C 60.5°F15.8°C 96% 5.1 mph SSW8.2 kmh SSW 15.0 mph24.1 kmh 29.77 in1008.1 mb 0.45 in11.4 mm 0.00 in0.0 mm 0.62 in15.7 mm
11:59 PM 61.8°F16.6°C 60.6°F15.9°C 96% 6.1 mph SW9.8 kmh SW 14.0 mph22.5 kmh 29.77 in1008.1 mb 0.45 in11.4 mm 0.00 in0.0 mm 0.64 in16.3 mm